Time;durP1;ratioP1;P1;durP2;ratioP2;P2;SDS_P1;SDS_P2;PMS_P1;PMS_P2;Temp;Humidity;BMP_temperature;BMP_pressure;BME280_temperature;BME280_humidity;BME280_pressure;Samples;Min_cycle;Max_cycle;Signal;HPM_P1;HPM_P2
2021/03/04 00:02:37;;;;;;;;;;;;;;;4.84;74.09;101026.02;1613118;87;20509;-79
2021/03/04 00:05:22;;;;;;;;;;;;;;;4.83;74.12;101025.58;1612741;87;20182;-78
2021/03/04 00:08:06;;;;;;;;;;;;;;;4.85;74.19;101023.48;1612641;87;20219;-78
2021/03/04 00:10:51;;;;;;;;;;;;;;;4.86;74.18;101016.66;1612511;87;20278;-78
2021/03/04 00:13:36;;;;;;;;;;;;;;;4.87;74.21;101014.12;1611646;87;20246;-79
2021/03/04 00:16:21;;;;;;;;;;;;;;;4.89;74.19;101013.72;1612479;87;20345;-78
2021/03/04 00:19:05;;;;;;;;;;;;;;;4.90;74.23;101014.16;1610302;87;20297;-78
2021/03/04 00:21:51;;;;;;;;;;;;;;;4.90;74.23;101009.45;1612231;87;20337;-78
2021/03/04 00:24:35;;;;;;;;;;;;;;;4.90;74.25;101006.89;1609878;88;20349;-78
2021/03/04 00:27:20;;;;;;;;;;;;;;;4.91;74.29;101003.48;1610246;88;20640;-78
2021/03/04 00:30:06;;;;;;;;;;;;;;;4.91;74.30;100997.95;1612192;86;20653;-78
2021/03/04 00:32:50;;;;;;;;;;;;;;;4.90;74.25;100996.64;1610176;87;20505;-78
2021/03/04 00:35:35;;;;;;;;;;;;;;;4.89;74.32;100998.34;1611882;87;20385;-78
2021/03/04 00:38:19;;;;;;;;;;;;;;;4.88;74.32;100993.20;1612544;87;20310;-78
2021/03/04 00:41:04;;;;;;;;;;;;;;;4.88;74.37;100995.77;1612228;85;20288;-79
2021/03/04 00:43:48;;;;;;;;;;;;;;;4.88;74.44;100993.20;1596786;87;20330;-79
2021/03/04 00:46:34;;;;;;;;;;;;;;;4.88;74.43;100992.78;1611392;87;20322;-79
2021/03/04 00:49:19;;;;;;;;;;;;;;;4.88;74.43;100990.22;1612847;86;20289;-79
2021/03/04 00:52:03;;;;;;;;;;;;;;;4.89;74.45;100991.08;1611030;87;20703;-79
2021/03/04 00:54:48;;;;;;;;;;;;;;;4.89;74.48;100984.25;1611666;87;20309;-78
2021/03/04 00:57:33;;;;;;;;;;;;;;;4.88;74.45;100981.67;1602369;87;20586;-78
2021/03/04 01:00:19;;;;;;;;;;;;;;;4.86;74.51;100979.51;1611328;87;20309;-78
2021/03/04 01:03:03;;;;;;;;;;;;;;;4.86;74.48;100980.79;1609544;89;20425;-79
2021/03/04 01:05:48;;;;;;;;;;;;;;;4.84;74.48;100971.80;1610099;87;20342;-78
2021/03/04 01:08:33;;;;;;;;;;;;;;;4.81;74.49;100965.36;1607449;87;20322;-78
2021/03/04 01:11:18;;;;;;;;;;;;;;;4.77;74.52;100959.75;1610519;87;20700;-78
2021/03/04 01:14:03;;;;;;;;;;;;;;;4.74;74.56;100958.43;1611499;87;20298;-78
2021/03/04 01:16:48;;;;;;;;;;;;;;;4.73;74.56;100960.55;1612256;87;20305;-78
2021/03/04 01:19:33;;;;;;;;;;;;;;;4.70;74.57;100958.37;1612630;87;20315;-78
2021/03/04 01:22:18;;;;;;;;;;;;;;;4.68;74.62;100963.47;1610977;86;20219;-78
2021/03/04 01:25:04;;;;;;;;;;;;;;;4.69;74.69;100954.09;1603329;87;20687;-78
2021/03/04 01:27:49;;;;;;;;;;;;;;;4.64;74.68;100953.64;1612140;87;20322;-78
2021/03/04 01:30:34;;;;;;;;;;;;;;;4.63;74.71;100950.63;1610418;86;20349;-78
2021/03/04 01:33:19;;;;;;;;;;;;;;;4.60;74.71;100948.03;1610594;87;20338;-78
2021/03/04 01:36:04;;;;;;;;;;;;;;;4.59;74.74;100946.31;1610838;87;20302;-78
2021/03/04 01:38:49;;;;;;;;;;;;;;;4.57;74.76;100944.14;1602844;87;20671;-77
2021/03/04 01:41:34;;;;;;;;;;;;;;;4.55;74.75;100946.25;1612451;87;20326;-78
2021/03/04 01:44:18;;;;;;;;;;;;;;;4.51;74.74;100941.50;1611937;87;20206;-78
2021/03/04 01:47:04;;;;;;;;;;;;;;;4.48;74.83;100941.87;1611975;87;20355;-78
2021/03/04 01:49:49;;;;;;;;;;;;;;;4.49;74.92;100937.20;1606368;87;20546;-78
2021/03/04 01:52:34;;;;;;;;;;;;;;;4.48;74.87;100926.52;1611447;87;20346;-78
2021/03/04 01:55:19;;;;;;;;;;;;;;;4.47;74.95;100928.63;1611772;87;20329;-79
2021/03/04 01:58:04;;;;;;;;;;;;;;;4.45;74.99;100921.35;1596415;88;20276;-79
2021/03/04 02:00:49;;;;;;;;;;;;;;;4.44;75.03;100914.51;1613472;87;20470;-79
2021/03/04 02:03:34;;;;;;;;;;;;;;;4.44;75.09;100909.39;1612105;87;20282;-79
2021/03/04 02:06:19;;;;;;;;;;;;;;;4.43;75.07;100913.65;1612788;87;20302;-79
2021/03/04 02:09:05;;;;;;;;;;;;;;;4.43;75.17;100907.25;1611702;87;20877;-79
2021/03/04 02:11:55;;;;;;;;;;;;;;;4.46;75.25;100916.67;1573284;89;20304;-78
2021/03/04 02:14:57;;;;;;;;;;;;;;;4.46;75.30;100906.02;1610742;87;20306;-78
2021/03/04 02:17:45;;;;;;;;;;;;;;;4.50;75.35;100895.39;1611377;87;20342;-78
2021/03/04 02:20:36;;;;;;;;;;;;;;;4.52;75.42;100895.84;1611294;87;20440;-78
2021/03/04 02:23:36;;;;;;;;;;;;;;;4.55;75.45;100893.75;1611534;87;20317;-78
2021/03/04 02:26:44;;;;;;;;;;;;;;;4.59;75.60;100896.79;1603604;87;20318;-78
2021/03/04 02:29:32;;;;;;;;;;;;;;;4.65;75.59;100897.73;1609644;88;20330;-78
2021/03/04 02:32:20;;;;;;;;;;;;;;;4.71;75.61;100896.91;1611059;87;20333;-78
2021/03/04 02:35:18;;;;;;;;;;;;;;;4.74;75.63;100890.55;1610911;87;20326;-78
2021/03/04 02:38:06;;;;;;;;;;;;;;;4.81;75.67;100895.33;1616498;87;20334;-78
2021/03/04 02:40:53;;;;;;;;;;;;;;;4.85;75.70;100891.54;1647177;85;20306;-78
2021/03/04 02:43:40;;;;;;;;;;;;;;;4.90;75.67;100895.44;1631232;85;20654;-78
2021/03/04 02:46:25;;;;;;;;;;;;;;;4.92;75.70;100892.05;1645115;86;20303;-78
2021/03/04 02:49:10;;;;;;;;;;;;;;;4.93;75.68;100891.20;1635252;85;20299;-78
2021/03/04 02:51:55;;;;;;;;;;;;;;;4.95;75.70;100888.66;1650814;85;20307;-78
2021/03/04 02:54:40;;;;;;;;;;;;;;;4.97;75.70;100898.51;1635363;85;20599;-78
2021/03/04 02:57:25;;;;;;;;;;;;;;;4.97;75.72;100889.54;1635608;85;20610;-78
2021/03/04 03:00:16;;;;;;;;;;;;;;;4.97;75.76;100886.55;1651116;85;20323;-78
2021/03/04 03:03:02;;;;;;;;;;;;;;;4.96;75.78;100882.69;1662587;85;20329;-78
2021/03/04 03:05:48;;;;;;;;;;;;;;;4.96;75.82;100875.00;1639867;85;21210;-78
2021/03/04 03:08:32;;;;;;;;;;;;;;;4.98;75.87;100877.16;1643458;85;20299;-78
2021/03/04 03:11:18;;;;;;;;;;;;;;;5.00;75.97;100884.45;1655965;84;20478;-78
2021/03/04 03:14:02;;;;;;;;;;;;;;;5.04;75.97;100890.47;1632519;85;20364;-78
2021/03/04 03:16:47;;;;;;;;;;;;;;;5.05;75.96;100889.20;1624703;86;20690;-78
2021/03/04 03:19:32;;;;;;;;;;;;;;;5.08;76.03;100892.22;1602778;87;20323;-78
2021/03/04 03:22:17;;;;;;;;;;;;;;;5.10;76.08;100902.92;1630489;85;20297;-78
2021/03/04 03:25:06;;;;;;;;;;;;;;;5.13;76.10;100906.80;1616676;87;20299;-79
2021/03/04 03:27:50;;;;;;;;;;;;;;;5.17;76.10;100905.14;1600139;87;20307;-78
2021/03/04 03:30:35;;;;;;;;;;;;;;;5.20;76.20;100903.43;1635919;86;20573;-78
2021/03/04 03:33:20;;;;;;;;;;;;;;;5.25;76.23;100909.47;1641136;86;21073;-78
2021/03/04 03:36:07;;;;;;;;;;;;;;;5.31;76.28;100900.98;1625519;86;20315;-77
2021/03/04 03:38:53;;;;;;;;;;;;;;;5.35;76.28;100901.45;1637171;85;20454;-77
2021/03/04 03:41:40;;;;;;;;;;;;;;;5.40;76.30;100899.79;1631541;86;20302;-78
2021/03/04 03:44:25;;;;;;;;;;;;;;;5.46;76.36;100896.00;1671129;84;20557;-78
2021/03/04 03:47:11;;;;;;;;;;;;;;;5.50;76.34;100904.58;1668589;84;20520;-78
2021/03/04 03:49:56;;;;;;;;;;;;;;;5.54;76.36;100905.05;1664811;84;20325;-78
2021/03/04 03:52:41;;;;;;;;;;;;;;;5.58;76.37;100902.95;1670223;85;20253;-78
2021/03/04 03:55:27;;;;;;;;;;;;;;;5.62;76.37;100904.70;1665656;84;20281;-78
2021/03/04 03:58:12;;;;;;;;;;;;;;;5.66;76.39;100903.88;1677203;84;20879;-78
2021/03/04 04:00:57;;;;;;;;;;;;;;;5.69;76.37;100902.63;1679514;84;20293;-78
2021/03/04 04:03:42;;;;;;;;;;;;;;;5.71;76.39;100895.80;1680189;84;20204;-78
2021/03/04 04:06:30;;;;;;;;;;;;;;;5.74;76.40;100886.81;1675543;84;20166;-78
2021/03/04 04:09:15;;;;;;;;;;;;;;;5.76;76.45;100886.41;1674178;84;20271;-78
2021/03/04 04:12:00;;;;;;;;;;;;;;;5.79;76.44;100888.13;1663835;84;20467;-77
2021/03/04 04:14:44;;;;;;;;;;;;;;;5.80;76.46;100879.16;1674368;84;20257;-78
2021/03/04 04:17:29;;;;;;;;;;;;;;;5.84;76.51;100881.33;1669355;85;20190;-78
2021/03/04 04:20:14;;;;;;;;;;;;;;;5.85;76.46;100872.78;1683452;84;20346;-78
2021/03/04 04:22:59;;;;;;;;;;;;;;;5.87;76.51;100867.23;1654437;84;20309;-78
2021/03/04 04:25:53;;;;;;;;;;;;;;;5.89;76.52;100869.42;1664793;85;20316;-78
2021/03/04 04:28:38;;;;;;;;;;;;;;;5.90;76.53;100861.73;1665324;84;20308;-78
2021/03/04 04:31:23;;;;;;;;;;;;;;;5.91;76.55;100872.44;1654817;85;20321;-78
2021/03/04 04:34:07;;;;;;;;;;;;;;;5.93;76.57;100864.75;1662565;84;20316;-78
2021/03/04 04:36:52;;;;;;;;;;;;;;;5.95;76.61;100866.91;1665620;85;20502;-78
2021/03/04 04:39:37;;;;;;;;;;;;;;;5.95;76.59;100860.48;1665020;84;20336;-78
2021/03/04 04:42:22;;;;;;;;;;;;;;;5.98;76.60;100865.64;1661515;84;20384;-79
2021/03/04 04:45:08;;;;;;;;;;;;;;;5.99;76.59;100869.92;1647863;84;20303;-78
2021/03/04 04:47:53;;;;;;;;;;;;;;;6.00;76.64;100861.80;1668591;85;20521;-78
2021/03/04 04:50:38;;;;;;;;;;;;;;;6.01;76.67;100863.52;1665933;84;20308;-78
2021/03/04 04:53:22;;;;;;;;;;;;;;;6.01;76.67;100854.11;1667218;85;20560;-78
2021/03/04 04:56:07;;;;;;;;;;;;;;;6.01;76.67;100855.39;1660051;85;20309;-78
2021/03/04 04:58:52;;;;;;;;;;;;;;;6.01;76.71;100856.67;1659787;84;20301;-78
2021/03/04 05:01:36;;;;;;;;;;;;;;;6.03;76.71;100852.84;1667558;85;20325;-78
2021/03/04 05:04:21;;;;;;;;;;;;;;;6.03;76.73;100856.69;1632792;87;20341;-78
2021/03/04 05:07:05;;;;;;;;;;;;;;;6.03;76.74;100858.83;1628651;86;20409;-78
2021/03/04 05:09:50;;;;;;;;;;;;;;;6.00;76.75;100851.11;1637915;86;20952;-78
2021/03/04 05:12:35;;;;;;;;;;;;;;;6.00;76.75;100856.67;1634513;86;20304;-78
2021/03/04 05:15:21;;;;;;;;;;;;;;;5.96;76.75;100853.22;1642507;86;20621;-79
2021/03/04 05:18:06;;;;;;;;;;;;;;;5.95;76.76;100851.08;1664003;84;20285;-79
2021/03/04 05:20:51;;;;;;;;;;;;;;;5.96;76.75;100849.38;1638772;85;20332;-79
2021/03/04 05:23:35;;;;;;;;;;;;;;;5.95;76.71;100857.50;1678778;84;20447;-79
2021/03/04 05:26:20;;;;;;;;;;;;;;;5.93;76.71;100857.05;1664307;84;20313;-78
2021/03/04 05:29:05;;;;;;;;;;;;;;;5.92;76.66;100846.34;1667455;84;20300;-78
2021/03/04 05:31:49;;;;;;;;;;;;;;;5.92;76.68;100842.50;1660042;84;20696;-78
2021/03/04 05:34:34;;;;;;;;;;;;;;;5.90;76.62;100836.50;1666254;84;20576;-78
2021/03/04 05:37:19;;;;;;;;;;;;;;;5.88;76.60;100831.75;1666654;84;20562;-78
2021/03/04 05:40:04;;;;;;;;;;;;;;;5.86;76.57;100833.02;1662158;84;20315;-78
2021/03/04 05:42:50;;;;;;;;;;;;;;;5.86;76.61;100834.30;1653055;84;20200;-78
2021/03/04 05:45:35;;;;;;;;;;;;;;;5.84;76.59;100827.02;1661996;84;20258;-78
2021/03/04 05:48:21;;;;;;;;;;;;;;;5.86;76.60;100827.03;1622941;86;20281;-78
2021/03/04 05:51:07;;;;;;;;;;;;;;;5.85;76.58;100830.44;1592721;88;20263;-79
2021/03/04 05:53:57;;;;;;;;;;;;;;;5.84;76.56;100836.00;1625942;86;20310;-79
2021/03/04 05:56:43;;;;;;;;;;;;;;;5.83;76.56;100849.68;1597267;88;20551;-79
2021/03/04 05:59:28;;;;;;;;;;;;;;;5.84;76.56;100840.27;1623018;87;20550;-78
2021/03/04 06:02:12;;;;;;;;;;;;;;;5.83;76.58;100834.70;1621421;87;20290;-79
2021/03/04 06:04:57;;;;;;;;;;;;;;;5.83;76.57;100844.97;1626264;86;20264;-78
2021/03/04 06:07:46;;;;;;;;;;;;;;;5.82;76.57;100844.11;1627285;86;20276;-79
2021/03/04 06:10:31;;;;;;;;;;;;;;;5.82;76.57;100849.24;1623899;86;20308;-77
2021/03/04 06:13:16;;;;;;;;;;;;;;;5.82;76.58;100851.81;1600708;87;20676;-78
2021/03/04 06:16:01;;;;;;;;;;;;;;;5.82;76.61;100860.79;1626166;86;20323;-78
2021/03/04 06:18:46;;;;;;;;;;;;;;;5.84;76.66;100864.65;1602291;86;20302;-78
2021/03/04 06:21:30;;;;;;;;;;;;;;;5.86;76.63;100857.40;1632173;86;20249;-79
2021/03/04 06:24:15;;;;;;;;;;;;;;;5.87;76.63;100866.81;1617922;87;20579;-79
2021/03/04 06:26:59;;;;;;;;;;;;;;;5.85;76.64;100863.38;1621669;86;20386;-79
2021/03/04 06:29:52;;;;;;;;;;;;;;;5.86;76.69;100862.53;1620263;86;20219;-78
2021/03/04 06:32:38;;;;;;;;;;;;;;;5.85;76.67;100861.23;1611902;86;20298;-78
2021/03/04 06:35:23;;;;;;;;;;;;;;;5.82;76.69;100860.79;1612987;87;20237;-78
2021/03/04 06:38:20;;;;;;;;;;;;;;;5.78;76.74;100862.90;1618312;87;20328;-78
2021/03/04 06:41:08;;;;;;;;;;;;;;;5.75;76.78;100871.85;1615409;87;20324;-78
2021/03/04 06:44:02;;;;;;;;;;;;;;;5.73;76.79;100862.42;1617016;87;20566;-79
2021/03/04 06:46:47;;;;;;;;;;;;;;;5.65;76.70;100867.10;1613202;87;20579;-77
2021/03/04 06:49:38;;;;;;;;;;;;;;;5.59;76.69;100870.05;1617643;87;20325;-76
2021/03/04 06:52:31;;;;;;;;;;;;;;;5.58;76.82;100868.33;1627274;87;20303;-77
2021/03/04 06:55:16;;;;;;;;;;;;;;;5.60;76.84;100870.48;1618030;86;20296;-78
2021/03/04 06:58:02;;;;;;;;;;;;;;;5.59;76.85;100872.61;1613850;87;20637;-78
2021/03/04 07:00:46;;;;;;;;;;;;;;;5.62;76.87;100877.77;1614970;87;20344;-78
2021/03/04 07:03:41;;;;;;;;;;;;;;;5.63;76.81;100871.79;1611581;87;20322;-78
2021/03/04 07:06:26;;;;;;;;;;;;;;;5.60;76.77;100868.77;1606996;87;20297;-78
2021/03/04 07:09:11;;;;;;;;;;;;;;;5.62;76.82;100872.63;1620066;86;20730;-78
2021/03/04 07:11:56;;;;;;;;;;;;;;;5.62;76.74;100876.48;1610805;87;20346;-79
2021/03/04 07:14:41;;;;;;;;;;;;;;;5.62;76.83;100873.91;1615027;87;20301;-79
2021/03/04 07:17:27;;;;;;;;;;;;;;;5.62;76.77;100881.19;1587565;88;20329;-79
2021/03/04 07:20:18;;;;;;;;;;;;;;;5.62;76.76;100886.31;1612396;87;20570;-79
2021/03/04 07:23:03;;;;;;;;;;;;;;;5.61;76.70;100882.45;1614230;87;20324;-79
2021/03/04 07:25:49;;;;;;;;;;;;;;;5.62;76.79;100883.75;1615036;87;20486;-79
2021/03/04 07:28:36;;;;;;;;;;;;;;;5.62;76.71;100890.59;1614740;87;20319;-80
2021/03/04 07:31:26;;;;;;;;;;;;;;;5.59;76.56;100888.00;1616701;87;20414;-80
2021/03/04 07:34:13;;;;;;;;;;;;;;;5.47;76.46;100891.31;1582207;88;20348;-79
2021/03/04 07:36:58;;;;;;;;;;;;;;;5.37;76.58;100893.34;1605080;87;20324;-78
2021/03/04 07:39:42;;;;;;;;;;;;;;;5.28;76.59;100891.55;1614317;87;20315;-79
2021/03/04 07:42:28;;;;;;;;;;;;;;;5.23;76.65;100891.07;1630818;86;20407;-78
2021/03/04 07:45:15;;;;;;;;;;;;;;;5.21;76.70;100885.06;1633270;86;20305;-79
2021/03/04 07:48:10;;;;;;;;;;;;;;;5.22;76.73;100886.78;1635245;86;21042;-78
2021/03/04 07:50:56;;;;;;;;;;;;;;;5.19;76.65;100888.06;1635621;86;20312;-79
2021/03/04 07:53:44;;;;;;;;;;;;;;;5.13;76.68;100875.19;1634732;86;20331;-79
2021/03/04 07:56:29;;;;;;;;;;;;;;;5.14;76.78;100880.75;1637101;86;20347;-79
2021/03/04 07:59:15;;;;;;;;;;;;;;;5.16;76.82;100877.36;1637566;86;20410;-79
2021/03/04 08:02:01;;;;;;;;;;;;;;;5.20;76.80;100880.36;1630351;86;20300;-79
2021/03/04 08:04:46;;;;;;;;;;;;;;;5.24;76.86;100873.14;1630634;86;20318;-78
2021/03/04 08:07:31;;;;;;;;;;;;;;;5.29;76.91;100874.05;1636326;86;20439;-79
2021/03/04 08:10:20;;;;;;;;;;;;;;;5.31;76.69;100880.47;1636276;86;20287;-78
2021/03/04 08:13:05;;;;;;;;;;;;;;;5.19;76.56;100878.67;1633531;86;20307;-77
2021/03/04 08:15:50;;;;;;;;;;;;;;;5.20;76.80;100880.36;1614608;86;20311;-79
2021/03/04 08:18:35;;;;;;;;;;;;;;;5.16;76.62;100881.20;1636796;86;20321;-79
2021/03/04 08:21:21;;;;;;;;;;;;;;;5.07;76.61;100875.13;1608256;86;20371;-79
2021/03/04 08:24:08;;;;;;;;;;;;;;;5.06;76.65;100882.38;1635166;86;20308;-79
2021/03/04 08:26:57;;;;;;;;;;;;;;;5.06;76.78;100889.64;1636227;86;20272;-80
2021/03/04 08:30:10;;;;;;;;;;;;;;;5.09;76.78;100890.95;1607621;87;20613;-79
2021/03/04 08:32:57;;;;;;;;;;;;;;;5.10;76.76;100893.95;1497627;94;20332;-79
2021/03/04 08:35:46;;;;;;;;;;;;;;;5.09;76.72;100897.78;1520408;92;20324;-79
2021/03/04 08:38:42;;;;;;;;;;;;;;;5.04;76.74;100895.17;1529724;92;20323;-79
2021/03/04 08:41:27;;;;;;;;;;;;;;;5.05;76.79;100893.47;1525069;92;20310;-79
2021/03/04 08:44:13;;;;;;;;;;;;;;;5.06;76.72;100887.08;1524602;92;20344;-79
2021/03/04 08:46:58;;;;;;;;;;;;;;;5.00;76.62;100885.73;1523944;92;20266;-79
2021/03/04 08:49:51;;;;;;;;;;;;;;;4.91;76.52;100892.03;1526706;92;20311;-78
2021/03/04 08:52:36;;;;;;;;;;;;;;;4.81;76.57;100889.78;1525948;92;20212;-78
2021/03/04 08:55:20;;;;;;;;;;;;;;;4.74;76.71;100889.69;1526283;92;20914;-78
2021/03/04 08:58:06;;;;;;;;;;;;;;;4.67;76.58;100889.20;1499621;94;20177;-78
2021/03/04 09:01:01;;;;;;;;;;;;;;;4.56;76.66;100888.65;1484440;94;20270;-78
2021/03/04 09:03:45;;;;;;;;;;;;;;;4.56;76.77;100894.19;1467266;96;20293;-79
2021/03/04 09:06:30;;;;;;;;;;;;;;;4.53;76.53;100897.57;1480286;94;20284;-78
2021/03/04 09:09:26;;;;;;;;;;;;;;;4.48;76.64;100909.88;1491245;94;20445;-78
2021/03/04 09:12:11;;;;;;;;;;;;;;;4.43;76.55;100903.83;1529123;90;20300;-78
2021/03/04 09:14:57;;;;;;;;;;;;;;;4.33;76.51;100903.70;1531852;92;20274;-79
2021/03/04 09:17:44;;;;;;;;;;;;;;;4.30;76.66;100906.64;1526527;92;20281;-79
2021/03/04 09:20:30;;;;;;;;;;;;;;;4.33;76.70;100902.42;1523358;92;20267;-78
2021/03/04 09:23:15;;;;;;;;;;;;;;;4.38;76.67;100905.46;1521716;93;20292;-79
2021/03/04 09:26:00;;;;;;;;;;;;;;;4.35;76.60;100911.82;1518486;91;20659;-79
2021/03/04 09:28:45;;;;;;;;;;;;;;;4.30;76.53;100910.47;1520828;92;20332;-78
2021/03/04 09:31:30;;;;;;;;;;;;;;;4.27;76.48;100910.02;1519301;93;20344;-78
2021/03/04 09:34:15;;;;;;;;;;;;;;;4.23;76.50;100907.39;1519077;93;20307;-79
2021/03/04 09:37:14;;;;;;;;;;;;;;;4.18;76.54;100904.76;1520901;94;20532;-78
2021/03/04 09:39:59;;;;;;;;;;;;;;;4.21;76.61;100906.50;1502659;94;20359;-79
2021/03/04 09:42:43;;;;;;;;;;;;;;;4.18;76.50;100907.73;1518946;92;20404;-78
2021/03/04 09:45:28;;;;;;;;;;;;;;;4.15;76.49;100914.13;1519634;94;20329;-79
2021/03/04 09:48:14;;;;;;;;;;;;;;;4.14;76.51;100912.41;1528132;92;20418;-79
2021/03/04 09:50:58;;;;;;;;;;;;;;;4.09;76.44;100921.70;1528313;92;20307;-80
2021/03/04 09:53:48;;;;;;;;;;;;;;;4.06;76.52;100922.94;1520185;93;20328;-80
2021/03/04 09:56:35;;;;;;;;;;;;;;;4.05;76.66;100923.36;1519555;92;20317;-80
2021/03/04 09:59:19;;;;;;;;;;;;;;;4.09;76.61;100928.96;1517958;93;20331;-80
2021/03/04 10:02:04;;;;;;;;;;;;;;;4.07;76.42;100925.94;1523974;92;20711;-80
2021/03/04 10:04:57;;;;;;;;;;;;;;;3.98;76.55;100927.52;1525816;92;20327;-79
2021/03/04 10:07:42;;;;;;;;;;;;;;;4.00;76.61;100933.94;1530269;92;20374;-79
2021/03/04 10:10:27;;;;;;;;;;;;;;;4.04;76.54;100935.70;1529171;92;20315;-78
2021/03/04 10:13:11;;;;;;;;;;;;;;;4.01;76.56;100930.54;1519716;92;20318;-79
2021/03/04 10:15:56;;;;;;;;;;;;;;;4.02;76.59;100933.96;1521014;93;20338;-78
2021/03/04 10:18:47;;;;;;;;;;;;;;;4.08;76.63;100937.89;1521231;92;20348;-77
2021/03/04 10:21:31;;;;;;;;;;;;;;;4.09;76.58;100937.06;1508454;92;20312;-77
2021/03/04 10:24:16;;;;;;;;;;;;;;;4.10;76.52;100938.36;1522008;92;20295;-77
2021/03/04 10:27:02;;;;;;;;;;;;;;;4.08;76.51;100944.29;1526265;92;20359;-77
2021/03/04 10:29:47;;;;;;;;;;;;;;;4.09;76.59;100936.64;1535962;92;20312;-77
2021/03/04 10:32:32;;;;;;;;;;;;;;;4.13;76.63;100936.27;1536673;91;20329;-77
2021/03/04 10:35:17;;;;;;;;;;;;;;;4.14;76.60;100931.17;1546016;91;20317;-78
2021/03/04 10:38:02;;;;;;;;;;;;;;;4.15;76.58;100933.31;1541031;91;20333;-78
2021/03/04 10:40:47;;;;;;;;;;;;;;;4.18;76.74;100930.34;1540134;90;20326;-79
2021/03/04 10:43:32;;;;;;;;;;;;;;;4.23;76.65;100935.54;1544494;89;20352;-78
2021/03/04 10:46:16;;;;;;;;;;;;;;;4.24;76.61;100928.30;1552392;91;20582;-78
2021/03/04 10:49:01;;;;;;;;;;;;;;;4.25;76.71;100928.33;1554977;91;20589;-79
2021/03/04 10:51:48;;;;;;;;;;;;;;;4.29;76.70;100930.09;1631950;86;20333;-79
2021/03/04 10:54:32;;;;;;;;;;;;;;;4.30;76.54;100933.52;1663442;84;20313;-78
2021/03/04 10:57:17;;;;;;;;;;;;;;;4.24;76.55;100935.56;1667635;84;21210;-78
2021/03/04 11:00:06;;;;;;;;;;;;;;;4.22;76.59;100937.66;1667755;84;20653;-78
2021/03/04 11:02:51;;;;;;;;;;;;;;;4.22;76.65;100937.66;1613834;84;20312;-78
2021/03/04 11:05:35;;;;;;;;;;;;;;;4.22;76.65;100932.12;1607905;87;20305;-78
2021/03/04 11:08:20;;;;;;;;;;;;;;;4.24;76.65;100934.28;1624092;86;20268;-79
2021/03/04 11:11:04;;;;;;;;;;;;;;;4.23;76.63;100936.82;1614956;87;20286;-78
2021/03/04 11:13:49;;;;;;;;;;;;;;;4.26;76.70;100939.42;1612010;87;20274;-78
2021/03/04 11:16:34;;;;;;;;;;;;;;;4.27;76.66;100934.33;1609782;87;20494;-78
2021/03/04 11:19:18;;;;;;;;;;;;;;;4.30;76.59;100927.11;1576848;89;20499;-78
2021/03/04 11:22:04;;;;;;;;;;;;;;;4.26;76.54;100939.42;1610727;89;20298;-79
2021/03/04 11:24:49;;;;;;;;;;;;;;;4.27;76.64;100941.14;1610131;88;20233;-79
2021/03/04 11:27:33;;;;;;;;;;;;;;;4.24;76.48;100938.55;1577770;90;20196;-78
2021/03/04 11:30:18;;;;;;;;;;;;;;;4.19;76.40;100938.89;1605389;88;20313;-78
2021/03/04 11:33:06;;;;;;;;;;;;;;;4.10;76.30;100935.80;1608585;87;20282;-79
2021/03/04 11:35:51;;;;;;;;;;;;;;;4.05;76.30;100936.15;1610523;87;20602;-78
2021/03/04 11:38:38;;;;;;;;;;;;;;;3.99;76.30;100930.52;1584164;87;20685;-79
2021/03/04 11:41:28;;;;;;;;;;;;;;;3.96;76.31;100928.33;1611907;87;20293;-79
2021/03/04 11:44:13;;;;;;;;;;;;;;;3.96;76.36;100920.66;1603424;87;20350;-78
2021/03/04 11:46:58;;;;;;;;;;;;;;;3.96;76.37;100908.72;1601708;86;506376;-78
2021/03/04 11:49:43;;;;;;;;;;;;;;;4.03;76.44;100906.26;1611432;87;20343;-79
2021/03/04 11:52:28;;;;;;;;;;;;;;;4.07;76.46;100899.93;1608658;87;20286;-80
2021/03/04 11:55:13;;;;;;;;;;;;;;;4.13;76.52;100893.63;1603625;87;20518;-80
2021/03/04 11:57:57;;;;;;;;;;;;;;;4.22;76.40;100891.59;1596157;87;20951;-76
2021/03/04 12:00:42;;;;;;;;;;;;;;;4.26;76.40;100895.91;1610840;87;20293;-79
2021/03/04 12:03:27;;;;;;;;;;;;;;;4.30;76.40;100892.14;1606733;88;20327;-79
2021/03/04 12:06:11;;;;;;;;;;;;;;;4.32;76.18;100891.73;1609010;88;21368;-78
2021/03/04 12:08:56;;;;;;;;;;;;;;;4.24;76.18;100891.19;1606203;89;20315;-79
2021/03/04 12:11:41;;;;;;;;;;;;;;;4.21;76.29;100888.59;1613824;87;20297;-79
2021/03/04 12:14:25;;;;;;;;;;;;;;;4.08;76.05;100888.86;1606508;87;20310;-79
2021/03/04 12:17:10;;;;;;;;;;;;;;;3.97;76.24;100886.14;1613441;87;20345;-79
2021/03/04 12:19:54;;;;;;;;;;;;;;;3.91;76.29;100884.77;1613477;87;21223;-79
2021/03/04 12:22:39;;;;;;;;;;;;;;;3.85;76.31;100883.39;1603283;87;20368;-79
2021/03/04 12:25:24;;;;;;;;;;;;;;;3.83;76.47;100879.09;1606451;87;20670;-78
2021/03/04 12:28:08;;;;;;;;;;;;;;;3.85;76.49;100890.20;1620268;87;20398;-79
2021/03/04 12:30:53;;;;;;;;;;;;;;;3.84;76.37;100894.87;1603891;87;20297;-79
2021/03/04 12:33:38;;;;;;;;;;;;;;;3.75;76.24;100896.87;1611646;87;20301;-79
2021/03/04 12:36:22;;;;;;;;;;;;;;;3.63;76.32;100892.45;1603497;87;20310;-79
2021/03/04 12:39:07;;;;;;;;;;;;;;;3.60;76.36;100886.42;1609460;87;20317;-79
2021/03/04 12:41:51;;;;;;;;;;;;;;;3.53;76.42;100882.90;1606243;87;20353;-79
2021/03/04 12:44:36;;;;;;;;;;;;;;;3.52;76.40;100882.88;1608680;87;20388;-79
2021/03/04 12:47:20;;;;;;;;;;;;;;;3.52;76.50;100880.31;1604135;87;20403;-79
2021/03/04 12:50:06;;;;;;;;;;;;;;;3.56;76.46;100879.53;1613068;87;20342;-79
2021/03/04 12:52:50;;;;;;;;;;;;;;;3.57;76.41;100878.28;1610293;87;20321;-79
2021/03/04 12:55:35;;;;;;;;;;;;;;;3.65;76.61;100877.09;1607450;87;21063;-79
2021/03/04 12:58:20;;;;;;;;;;;;;;;3.73;76.46;100872.97;1608766;87;20309;-79
2021/03/04 13:01:05;;;;;;;;;;;;;;;3.80;76.47;100867.53;1588449;89;21297;-79
2021/03/04 13:03:50;;;;;;;;;;;;;;;3.87;76.42;100870.63;1616111;87;20609;-79
2021/03/04 13:06:34;;;;;;;;;;;;;;;3.92;76.36;100871.55;1573888;89;20291;-79
2021/03/04 13:09:19;;;;;;;;;;;;;;;3.98;76.24;100864.83;1610485;87;20294;-79
2021/03/04 13:12:04;;;;;;;;;;;;;;;4.07;76.27;100858.13;1607723;88;20265;-78
2021/03/04 13:14:49;;;;;;;;;;;;;;;4.16;76.29;100861.65;1590768;89;20258;-79
2021/03/04 13:17:33;;;;;;;;;;;;;;;4.25;76.25;100856.66;1604685;87;20322;-79
2021/03/04 13:20:18;;;;;;;;;;;;;;;4.33;76.26;100856.34;1615172;87;20250;-81
2021/03/04 13:23:03;;;;;;;;;;;;;;;4.39;76.04;100851.72;1615273;87;20977;-79
2021/03/04 13:25:48;;;;;;;;;;;;;;;4.42;76.07;100853.04;1611836;87;20278;-79
2021/03/04 13:28:32;;;;;;;;;;;;;;;4.44;75.94;100846.66;1605572;87;20322;-78
2021/03/04 13:31:17;;;;;;;;;;;;;;;4.51;76.12;100848.45;1610985;87;20297;-79
2021/03/04 13:34:01;;;;;;;;;;;;;;;4.54;75.92;100844.23;1611475;87;20561;-79
2021/03/04 13:36:46;;;;;;;;;;;;;;;4.58;75.91;100843.85;1605315;88;20312;-79
2021/03/04 13:39:30;;;;;;;;;;;;;;;4.58;75.80;100844.71;1608406;87;20812;-78
2021/03/04 13:42:15;;;;;;;;;;;;;;;4.61;75.93;100847.31;1604980;87;20309;-79
2021/03/04 13:45:00;;;;;;;;;;;;;;;4.60;75.63;100851.13;1605643;87;20294;-78
2021/03/04 13:47:44;;;;;;;;;;;;;;;4.56;75.66;100850.23;1610085;87;20314;-78
2021/03/04 13:50:29;;;;;;;;;;;;;;;4.52;75.62;100852.73;1608354;87;20624;-78
2021/03/04 13:53:14;;;;;;;;;;;;;;;4.52;75.69;100843.78;1609624;87;20675;-78
2021/03/04 13:55:58;;;;;;;;;;;;;;;4.53;75.68;100845.50;1611595;87;20659;-78
2021/03/04 13:58:44;;;;;;;;;;;;;;;4.54;75.69;100844.66;1610895;88;20337;-78
2021/03/04 14:01:28;;;;;;;;;;;;;;;4.52;75.54;100849.76;1611962;87;20632;-79
2021/03/04 14:04:13;;;;;;;;;;;;;;;4.52;75.76;100851.03;1604405;87;20624;-78
2021/03/04 14:06:58;;;;;;;;;;;;;;;4.53;75.63;100846.78;1604800;89;20583;-79
2021/03/04 14:09:42;;;;;;;;;;;;;;;4.54;75.74;100856.17;1604295;87;20477;-76
2021/03/04 14:12:27;;;;;;;;;;;;;;;4.54;75.66;100848.50;1611047;88;20324;-76
2021/03/04 14:15:12;;;;;;;;;;;;;;;4.54;75.65;100849.77;1611882;87;20313;-76
2021/03/04 14:17:57;;;;;;;;;;;;;;;4.55;75.70;100846.38;1604104;88;20318;-76
2021/03/04 14:20:41;;;;;;;;;;;;;;;4.52;75.62;100848.48;1607363;87;20355;-76
2021/03/04 14:23:26;;;;;;;;;;;;;;;4.51;75.66;100841.64;1604424;87;20313;-76
2021/03/04 14:26:11;;;;;;;;;;;;;;;4.50;75.73;100831.38;1617686;87;20596;-76